sensor_id;sensor_type;location;lat;lon;timestamp;pressure;altitude;pressure_sealevel;temperature;humidity
6668;BME280;3370;47.712;9.082;2023-11-19T00:02:23;97293.56;;;6.31;100.00
6668;BME280;3370;47.712;9.082;2023-11-19T00:04:49;97275.53;;;6.38;100.00
6668;BME280;3370;47.712;9.082;2023-11-19T00:07:15;97254.22;;;6.40;100.00
6668;BME280;3370;47.712;9.082;2023-11-19T00:09:41;97256.06;;;6.33;100.00
6668;BME280;3370;47.712;9.082;2023-11-19T00:12:09;97244.09;;;6.36;100.00
6668;BME280;3370;47.712;9.082;2023-11-19T00:14:34;97224.41;;;6.39;100.00
6668;BME280;3370;47.712;9.082;2023-11-19T00:17:00;97222.91;;;6.32;100.00
6668;BME280;3370;47.712;9.082;2023-11-19T00:19:26;97220.06;;;6.43;100.00
6668;BME280;3370;47.712;9.082;2023-11-19T00:21:52;97229.44;;;6.44;100.00
6668;BME280;3370;47.712;9.082;2023-11-19T00:24:18;97228.38;;;6.51;100.00
6668;BME280;3370;47.712;9.082;2023-11-19T00:26:45;97221.59;;;6.50;100.00
6668;BME280;3370;47.712;9.082;2023-11-19T00:29:12;97217.28;;;6.52;100.00
6668;BME280;3370;47.712;9.082;2023-11-19T00:31:39;97200.06;;;6.59;100.00
6668;BME280;3370;47.712;9.082;2023-11-19T00:34:05;97201.84;;;6.57;100.00
6668;BME280;3370;47.712;9.082;2023-11-19T00:36:31;97196.75;;;6.55;100.00
6668;BME280;3370;47.712;9.082;2023-11-19T00:38:57;97212.03;;;6.58;100.00
6668;BME280;3370;47.712;9.082;2023-11-19T00:41:24;97217.81;;;6.63;100.00
6668;BME280;3370;47.712;9.082;2023-11-19T00:43:51;97217.13;;;6.58;100.00
6668;BME280;3370;47.712;9.082;2023-11-19T00:46:16;97211.84;;;6.64;100.00
6668;BME280;3370;47.712;9.082;2023-11-19T00:48:42;97205.94;;;6.62;100.00
6668;BME280;3370;47.712;9.082;2023-11-19T00:51:08;97193.97;;;6.64;100.00
6668;BME280;3370;47.712;9.082;2023-11-19T00:53:34;97200.63;;;6.70;100.00
6668;BME280;3370;47.712;9.082;2023-11-19T00:56:00;97220.31;;;6.66;100.00
6668;BME280;3370;47.712;9.082;2023-11-19T00:58:26;97238.25;;;6.63;100.00
6668;BME280;3370;47.712;9.082;2023-11-19T01:00:52;97236.59;;;6.62;100.00
6668;BME280;3370;47.712;9.082;2023-11-19T01:03:18;97234.91;;;6.61;100.00
6668;BME280;3370;47.712;9.082;2023-11-19T01:05:44;97222.13;;;6.61;100.00
6668;BME280;3370;47.712;9.082;2023-11-19T01:08:10;97216.09;;;6.65;100.00
6668;BME280;3370;47.712;9.082;2023-11-19T01:10:39;97209.84;;;6.76;100.00
6668;BME280;3370;47.712;9.082;2023-11-19T01:13:05;97207.13;;;6.82;100.00
6668;BME280;3370;47.712;9.082;2023-11-19T01:15:32;97219.97;;;6.79;100.00
6668;BME280;3370;47.712;9.082;2023-11-19T01:17:57;97231.00;;;6.81;100.00
6668;BME280;3370;47.712;9.082;2023-11-19T01:20:24;97228.53;;;6.78;100.00
6668;BME280;3370;47.712;9.082;2023-11-19T01:22:50;97229.56;;;6.70;100.00
6668;BME280;3370;47.712;9.082;2023-11-19T01:25:16;97225.44;;;6.65;100.00
6668;BME280;3370;47.712;9.082;2023-11-19T01:27:42;97213.47;;;6.67;100.00
6668;BME280;3370;47.712;9.082;2023-11-19T01:30:09;97206.56;;;6.70;100.00
6668;BME280;3370;47.712;9.082;2023-11-19T01:32:39;97218.47;;;6.71;100.00
6668;BME280;3370;47.712;9.082;2023-11-19T01:35:06;97223.66;;;6.68;100.00
6668;BME280;3370;47.712;9.082;2023-11-19T01:37:33;97218.59;;;6.67;100.00
6668;BME280;3370;47.712;9.082;2023-11-19T01:40:00;97222.88;;;6.66;100.00
6668;BME280;3370;47.712;9.082;2023-11-19T01:42:26;97199.16;;;6.61;100.00
6668;BME280;3370;47.712;9.082;2023-11-19T01:44:59;97195.78;;;6.59;100.00
6668;BME280;3370;47.712;9.082;2023-11-19T01:47:28;97183.06;;;6.58;100.00
6668;BME280;3370;47.712;9.082;2023-11-19T01:49:56;97191.50;;;6.60;100.00
6668;BME280;3370;47.712;9.082;2023-11-19T01:52:24;97177.03;;;6.60;100.00
6668;BME280;3370;47.712;9.082;2023-11-19T01:54:52;97171.44;;;6.47;100.00
6668;BME280;3370;47.712;9.082;2023-11-19T01:57:20;97170.31;;;6.56;100.00
6668;BME280;3370;47.712;9.082;2023-11-19T01:59:50;97172.09;;;6.54;100.00
6668;BME280;3370;47.712;9.082;2023-11-19T02:02:16;97158.06;;;6.69;100.00
6668;BME280;3370;47.712;9.082;2023-11-19T02:04:50;97160.63;;;6.69;100.00
6668;BME280;3370;47.712;9.082;2023-11-19T02:07:16;97153.59;;;6.76;100.00
6668;BME280;3370;47.712;9.082;2023-11-19T02:09:46;97145.72;;;6.83;100.00
6668;BME280;3370;47.712;9.082;2023-11-19T02:12:11;97137.69;;;6.96;100.00
6668;BME280;3370;47.712;9.082;2023-11-19T02:14:37;97130.16;;;6.93;100.00
6668;BME280;3370;47.712;9.082;2023-11-19T02:17:04;97125.97;;;6.88;100.00
6668;BME280;3370;47.712;9.082;2023-11-19T02:19:30;97117.22;;;6.97;100.00
6668;BME280;3370;47.712;9.082;2023-11-19T02:21:56;97121.44;;;6.98;100.00
6668;BME280;3370;47.712;9.082;2023-11-19T02:24:22;97106.91;;;7.00;100.00
6668;BME280;3370;47.712;9.082;2023-11-19T02:29:22;97137.63;;;6.99;100.00
6668;BME280;3370;47.712;9.082;2023-11-19T02:31:48;97126.56;;;6.98;100.00
6668;BME280;3370;47.712;9.082;2023-11-19T02:34:14;97124.00;;;6.98;100.00
6668;BME280;3370;47.712;9.082;2023-11-19T02:36:40;97130.97;;;6.93;100.00
6668;BME280;3370;47.712;9.082;2023-11-19T02:39:08;97125.97;;;6.88;100.00
6668;BME280;3370;47.712;9.082;2023-11-19T02:41:36;97132.03;;;6.86;100.00
6668;BME280;3370;47.712;9.082;2023-11-19T02:44:05;97125.34;;;6.82;100.00
6668;BME280;3370;47.712;9.082;2023-11-19T02:46:31;97142.53;;;6.77;100.00
6668;BME280;3370;47.712;9.082;2023-11-19T02:48:57;97134.06;;;6.75;100.00
6668;BME280;3370;47.712;9.082;2023-11-19T02:51:23;97131.63;;;6.70;100.00
6668;BME280;3370;47.712;9.082;2023-11-19T02:53:49;97126.09;;;6.85;100.00
6668;BME280;3370;47.712;9.082;2023-11-19T02:56:15;97130.00;;;6.97;100.00
6668;BME280;3370;47.712;9.082;2023-11-19T02:58:50;97119.31;;;7.13;100.00
6668;BME280;3370;47.712;9.082;2023-11-19T03:01:24;97118.34;;;7.17;100.00
6668;BME280;3370;47.712;9.082;2023-11-19T03:04:00;97120.16;;;7.13;100.00
6668;BME280;3370;47.712;9.082;2023-11-19T03:06:27;97119.31;;;7.13;100.00
6668;BME280;3370;47.712;9.082;2023-11-19T03:08:55;97109.63;;;7.22;100.00
6668;BME280;3370;47.712;9.082;2023-11-19T03:11:21;97122.06;;;7.35;100.00
6668;BME280;3370;47.712;9.082;2023-11-19T03:13:46;97117.97;;;7.29;100.00
6668;BME280;3370;47.712;9.082;2023-11-19T03:16:13;97122.31;;;7.27;100.00
6668;BME280;3370;47.712;9.082;2023-11-19T03:18:39;97122.09;;;7.33;100.00
6668;BME280;3370;47.712;9.082;2023-11-19T03:21:08;97120.53;;;7.29;100.00
6668;BME280;3370;47.712;9.082;2023-11-19T03:23:34;97111.91;;;7.32;100.00
6668;BME280;3370;47.712;9.082;2023-11-19T03:26:01;97113.94;;;7.22;100.00
6668;BME280;3370;47.712;9.082;2023-11-19T03:28:31;97118.84;;;7.28;100.00
6668;BME280;3370;47.712;9.082;2023-11-19T03:30:57;97129.72;;;7.35;100.00
6668;BME280;3370;47.712;9.082;2023-11-19T03:33:22;97121.03;;;7.40;100.00
6668;BME280;3370;47.712;9.082;2023-11-19T03:35:48;97126.88;;;7.44;100.00
6668;BME280;3370;47.712;9.082;2023-11-19T03:38:14;97134.53;;;7.45;100.00
6668;BME280;3370;47.712;9.082;2023-11-19T03:40:40;97133.44;;;7.53;100.00
6668;BME280;3370;47.712;9.082;2023-11-19T03:43:06;97132.53;;;7.54;100.00
6668;BME280;3370;47.712;9.082;2023-11-19T03:45:32;97137.53;;;7.58;100.00
6668;BME280;3370;47.712;9.082;2023-11-19T03:47:57;97142.69;;;7.57;100.00
6668;BME280;3370;47.712;9.082;2023-11-19T03:50:23;97147.84;;;7.55;100.00
6668;BME280;3370;47.712;9.082;2023-11-19T03:52:49;97149.59;;;7.55;100.00
6668;BME280;3370;47.712;9.082;2023-11-19T03:55:15;97137.94;;;7.44;100.00
6668;BME280;3370;47.712;9.082;2023-11-19T03:57:41;97131.72;;;7.53;100.00
6668;BME280;3370;47.712;9.082;2023-11-19T04:00:07;97140.13;;;7.57;100.00
6668;BME280;3370;47.712;9.082;2023-11-19T04:02:37;97134.91;;;7.60;100.00
6668;BME280;3370;47.712;9.082;2023-11-19T04:05:03;97123.91;;;7.58;100.00
6668;BME280;3370;47.712;9.082;2023-11-19T04:07:31;97134.22;;;7.55;100.00
6668;BME280;3370;47.712;9.082;2023-11-19T04:09:57;97133.31;;;7.56;100.00
6668;BME280;3370;47.712;9.082;2023-11-19T04:12:23;97150.44;;;7.54;100.00
6668;BME280;3370;47.712;9.082;2023-11-19T04:14:49;97147.31;;;7.45;100.00
6668;BME280;3370;47.712;9.082;2023-11-19T04:17:14;97143.03;;;7.46;100.00
6668;BME280;3370;47.712;9.082;2023-11-19T04:19:40;97141.19;;;7.49;100.00
6668;BME280;3370;47.712;9.082;2023-11-19T04:22:07;97147.91;;;7.54;100.00
6668;BME280;3370;47.712;9.082;2023-11-19T04:24:35;97146.19;;;7.54;100.00
6668;BME280;3370;47.712;9.082;2023-11-19T04:27:01;97136.91;;;7.50;100.00
6668;BME280;3370;47.712;9.082;2023-11-19T04:29:26;97145.28;;;7.55;100.00
6668;BME280;3370;47.712;9.082;2023-11-19T04:31:52;97143.47;;;7.59;100.00
6668;BME280;3370;47.712;9.082;2023-11-19T04:34:18;97141.69;;;7.61;100.00
6668;BME280;3370;47.712;9.082;2023-11-19T04:36:44;97145.25;;;7.57;100.00
6668;BME280;3370;47.712;9.082;2023-11-19T04:39:09;97149.75;;;7.48;100.00
6668;BME280;3370;47.712;9.082;2023-11-19T04:41:51;97151.53;;;7.46;100.00
6668;BME280;3370;47.712;9.082;2023-11-19T04:44:20;97148.06;;;7.49;100.00
6668;BME280;3370;47.712;9.082;2023-11-19T04:46:47;97147.09;;;7.52;100.00
6668;BME280;3370;47.712;9.082;2023-11-19T04:49:13;97154.00;;;7.49;100.00
6668;BME280;3370;47.712;9.082;2023-11-19T04:51:45;97138.34;;;7.59;100.00
6668;BME280;3370;47.712;9.082;2023-11-19T04:54:13;97144.94;;;7.66;100.00
6668;BME280;3370;47.712;9.082;2023-11-19T04:56:40;97138.25;;;7.62;100.00
6668;BME280;3370;47.712;9.082;2023-11-19T04:59:06;97147.66;;;7.61;100.00
6668;BME280;3370;47.712;9.082;2023-11-19T05:01:33;97136.41;;;7.67;100.00
6668;BME280;3370;47.712;9.082;2023-11-19T05:03:59;97133.84;;;7.67;100.00
6668;BME280;3370;47.712;9.082;2023-11-19T05:06:29;97147.47;;;7.67;100.00
6668;BME280;3370;47.712;9.082;2023-11-19T05:08:56;97137.31;;;7.64;100.00
6668;BME280;3370;47.712;9.082;2023-11-19T05:11:22;97147.47;;;7.67;100.00
6668;BME280;3370;47.712;9.082;2023-11-19T05:13:48;97158.50;;;7.70;100.00
6668;BME280;3370;47.712;9.082;2023-11-19T05:16:14;97150.44;;;7.82;100.00
6668;BME280;3370;47.712;9.082;2023-11-19T05:18:41;97135.84;;;7.84;100.00
6668;BME280;3370;47.712;9.082;2023-11-19T05:21:06;97124.81;;;7.82;100.00
6668;BME280;3370;47.712;9.082;2023-11-19T05:23:35;97127.22;;;7.86;100.00
6668;BME280;3370;47.712;9.082;2023-11-19T05:26:02;97135.06;;;7.82;100.00
6668;BME280;3370;47.712;9.082;2023-11-19T05:28:28;97134.97;;;7.85;100.00
6668;BME280;3370;47.712;9.082;2023-11-19T05:30:54;97140.84;;;7.89;100.00
6668;BME280;3370;47.712;9.082;2023-11-19T05:33:21;97127.34;;;7.83;100.00
6668;BME280;3370;47.712;9.082;2023-11-19T05:35:47;97133.19;;;7.87;100.00
6668;BME280;3370;47.712;9.082;2023-11-19T05:38:12;97118.41;;;7.95;100.00
6668;BME280;3370;47.712;9.082;2023-11-19T05:40:38;97111.75;;;7.90;100.00
6668;BME280;3370;47.712;9.082;2023-11-19T05:43:05;97114.06;;;7.97;100.00
6668;BME280;3370;47.712;9.082;2023-11-19T05:45:32;97120.19;;;7.93;100.00
6668;BME280;3370;47.712;9.082;2023-11-19T05:47:58;97123.69;;;7.91;100.00
6668;BME280;3370;47.712;9.082;2023-11-19T05:50:24;97129.63;;;7.91;100.00
6668;BME280;3370;47.712;9.082;2023-11-19T05:52:50;97123.56;;;7.94;100.00
6668;BME280;3370;47.712;9.082;2023-11-19T05:55:16;97133.72;;;7.97;100.00
6668;BME280;3370;47.712;9.082;2023-11-19T05:57:41;97128.19;;;8.09;100.00
6668;BME280;3370;47.712;9.082;2023-11-19T06:00:08;97141.69;;;8.14;100.00
6668;BME280;3370;47.712;9.082;2023-11-19T06:02:36;97142.16;;;8.25;100.00
6668;BME280;3370;47.712;9.082;2023-11-19T06:05:05;97136.84;;;8.30;100.00
6668;BME280;3370;47.712;9.082;2023-11-19T06:07:32;97137.72;;;8.31;100.00
6668;BME280;3370;47.712;9.082;2023-11-19T06:09:58;97137.56;;;8.34;100.00
6668;BME280;3370;47.712;9.082;2023-11-19T06:12:24;97138.97;;;8.44;100.00
6668;BME280;3370;47.712;9.082;2023-11-19T06:14:50;97133.53;;;8.53;100.00
6668;BME280;3370;47.712;9.082;2023-11-19T06:17:15;97141.50;;;8.46;100.00
6668;BME280;3370;47.712;9.082;2023-11-19T06:19:41;97137.88;;;8.51;100.00
6668;BME280;3370;47.712;9.082;2023-11-19T06:22:07;97144.50;;;8.57;100.00
6668;BME280;3370;47.712;9.082;2023-11-19T06:24:33;97137.59;;;8.59;100.00
6668;BME280;3370;47.712;9.082;2023-11-19T06:26:58;97135.75;;;8.62;100.00
6668;BME280;3370;47.712;9.082;2023-11-19T06:29:24;97134.78;;;8.67;100.00
6668;BME280;3370;47.712;9.082;2023-11-19T06:31:50;97128.19;;;8.59;100.00
6668;BME280;3370;47.712;9.082;2023-11-19T06:34:16;97136.47;;;8.66;100.00
6668;BME280;3370;47.712;9.082;2023-11-19T06:36:42;97142.72;;;8.59;100.00
6668;BME280;3370;47.712;9.082;2023-11-19T06:39:09;97141.59;;;8.66;100.00
6668;BME280;3370;47.712;9.082;2023-11-19T06:41:36;97139.09;;;8.64;100.00
6668;BME280;3370;47.712;9.082;2023-11-19T06:44:04;97150.34;;;8.60;100.00
6668;BME280;3370;47.712;9.082;2023-11-19T06:46:30;97140.72;;;8.67;100.00
6668;BME280;3370;47.712;9.082;2023-11-19T06:48:57;97145.81;;;8.69;100.00
6668;BME280;3370;47.712;9.082;2023-11-19T06:51:23;97150.66;;;8.76;100.00
6668;BME280;3370;47.712;9.082;2023-11-19T06:53:50;97149.69;;;8.79;100.00
6668;BME280;3370;47.712;9.082;2023-11-19T06:56:23;97149.63;;;8.80;100.00
6668;BME280;3370;47.712;9.082;2023-11-19T06:58:52;97143.56;;;8.83;100.00
6668;BME280;3370;47.712;9.082;2023-11-19T07:01:19;97137.78;;;8.78;100.00
6668;BME280;3370;47.712;9.082;2023-11-19T07:03:45;97146.19;;;8.81;100.00
6668;BME280;3370;47.712;9.082;2023-11-19T07:06:12;97148.53;;;8.88;100.00
6668;BME280;3370;47.712;9.082;2023-11-19T07:08:40;97155.81;;;8.98;100.00
6668;BME280;3370;47.712;9.082;2023-11-19T07:11:06;97161.91;;;8.96;100.00
6668;BME280;3370;47.712;9.082;2023-11-19T07:13:32;97162.41;;;9.06;100.00
6668;BME280;3370;47.712;9.082;2023-11-19T07:15:58;97161.53;;;9.07;100.00
6668;BME280;3370;47.712;9.082;2023-11-19T07:18:25;97151.25;;;9.07;100.00
6668;BME280;3370;47.712;9.082;2023-11-19T07:20:51;97153.34;;;9.19;100.00
6668;BME280;3370;47.712;9.082;2023-11-19T07:23:17;97152.31;;;9.25;100.00
6668;BME280;3370;47.712;9.082;2023-11-19T07:25:43;97152.00;;;9.32;100.00
6668;BME280;3370;47.712;9.082;2023-11-19T07:28:13;97150.88;;;9.39;100.00
6668;BME280;3370;47.712;9.082;2023-11-19T07:30:39;97155.88;;;9.43;100.00
6668;BME280;3370;47.712;9.082;2023-11-19T07:33:05;97158.25;;;9.47;100.00
6668;BME280;3370;47.712;9.082;2023-11-19T07:35:31;97162.22;;;9.56;100.00
6668;BME280;3370;47.712;9.082;2023-11-19T07:37:57;97157.06;;;9.56;100.00
6668;BME280;3370;47.712;9.082;2023-11-19T07:40:24;97159.53;;;9.59;100.00
6668;BME280;3370;47.712;9.082;2023-11-19T07:42:50;97155.28;;;9.58;100.00
6668;BME280;3370;47.712;9.082;2023-11-19T07:45:17;97155.38;;;9.55;100.00
6668;BME280;3370;47.712;9.082;2023-11-19T07:47:43;97153.59;;;9.57;100.00
6668;BME280;3370;47.712;9.082;2023-11-19T07:50:13;97158.63;;;9.60;100.00
6668;BME280;3370;47.712;9.082;2023-11-19T07:52:40;97161.72;;;9.68;100.00
6668;BME280;3370;47.712;9.082;2023-11-19T07:55:06;97165.97;;;9.69;100.00
6668;BME280;3370;47.712;9.082;2023-11-19T07:57:31;97169.19;;;9.74;100.00
6668;BME280;3370;47.712;9.082;2023-11-19T07:59:57;97174.16;;;9.79;100.00
6668;BME280;3370;47.712;9.082;2023-11-19T08:02:23;97173.53;;;9.72;100.00
6668;BME280;3370;47.712;9.082;2023-11-19T08:04:50;97180.34;;;9.73;100.00
6668;BME280;3370;47.712;9.082;2023-11-19T08:07:18;97174.31;;;9.74;100.00
6668;BME280;3370;47.712;9.082;2023-11-19T08:09:45;97175.19;;;9.73;100.00
6668;BME280;3370;47.712;9.082;2023-11-19T08:12:10;97180.22;;;9.76;100.00
6668;BME280;3370;47.712;9.082;2023-11-19T08:14:36;97174.91;;;9.81;100.00
6668;BME280;3370;47.712;9.082;2023-11-19T08:17:05;97183.19;;;9.88;100.00
6668;BME280;3370;47.712;9.082;2023-11-19T08:19:30;97183.06;;;9.91;100.00
6668;BME280;3370;47.712;9.082;2023-11-19T08:21:56;97182.97;;;9.94;100.00
6668;BME280;3370;47.712;9.082;2023-11-19T08:24:22;97175.91;;;9.99;100.00
6668;BME280;3370;47.712;9.082;2023-11-19T08:26:48;97176.47;;;10.06;100.00
6668;BME280;3370;47.712;9.082;2023-11-19T08:29:14;97189.63;;;9.98;100.00
6668;BME280;3370;47.712;9.082;2023-11-19T08:31:39;97187.47;;;10.09;100.00
6668;BME280;3370;47.712;9.082;2023-11-19T08:34:05;97180.19;;;10.21;100.00
6668;BME280;3370;47.712;9.082;2023-11-19T08:36:34;97182.97;;;10.14;100.00
6668;BME280;3370;47.712;9.082;2023-11-19T08:39:00;97184.06;;;10.29;100.00
6668;BME280;3370;47.712;9.082;2023-11-19T08:41:26;97183.25;;;10.29;100.00
6668;BME280;3370;47.712;9.082;2023-11-19T08:43:52;97188.50;;;10.26;100.00
6668;BME280;3370;47.712;9.082;2023-11-19T08:46:18;97195.09;;;10.33;100.00
6668;BME280;3370;47.712;9.082;2023-11-19T08:48:44;97189.00;;;10.35;100.00
6668;BME280;3370;47.712;9.082;2023-11-19T08:51:12;97194.09;;;10.37;100.00
6668;BME280;3370;47.712;9.082;2023-11-19T08:53:38;97187.97;;;10.40;100.00
6668;BME280;3370;47.712;9.082;2023-11-19T08:56:04;97190.59;;;10.38;100.00
6668;BME280;3370;47.712;9.082;2023-11-19T08:58:30;97193.69;;;10.46;100.00
6668;BME280;3370;47.712;9.082;2023-11-19T09:00:57;97197.91;;;10.47;100.00
6668;BME280;3370;47.712;9.082;2023-11-19T09:03:23;97197.81;;;10.50;100.00
6668;BME280;3370;47.712;9.082;2023-11-19T09:05:49;97197.69;;;10.53;100.00
6668;BME280;3370;47.712;9.082;2023-11-19T09:08:15;97205.19;;;10.58;100.00
6668;BME280;3370;47.712;9.082;2023-11-19T09:10:41;97205.31;;;10.55;100.00
6668;BME280;3370;47.712;9.082;2023-11-19T09:13:06;97205.19;;;10.58;100.00
6668;BME280;3370;47.712;9.082;2023-11-19T09:15:33;97204.22;;;10.61;100.00
6668;BME280;3370;47.712;9.082;2023-11-19T09:17:59;97200.63;;;10.65;100.00
6668;BME280;3370;47.712;9.082;2023-11-19T09:20:24;97199.63;;;10.67;100.00
6668;BME280;3370;47.712;9.082;2023-11-19T09:22:50;97211.84;;;10.62;100.00
6668;BME280;3370;47.712;9.082;2023-11-19T09:25:17;97215.22;;;10.64;100.00
6668;BME280;3370;47.712;9.082;2023-11-19T09:27:44;97216.06;;;10.65;100.00
6668;BME280;3370;47.712;9.082;2023-11-19T09:30:10;97219.66;;;10.61;100.00
6668;BME280;3370;47.712;9.082;2023-11-19T09:32:36;97219.78;;;10.58;100.00
6668;BME280;3370;47.712;9.082;2023-11-19T09:35:04;97217.84;;;10.63;100.00
6668;BME280;3370;47.712;9.082;2023-11-19T09:37:30;97213.34;;;10.68;100.00
6668;BME280;3370;47.712;9.082;2023-11-19T09:39:55;97215.78;;;10.71;100.00
6668;BME280;3370;47.712;9.082;2023-11-19T09:42:23;97219.25;;;10.70;100.00
6668;BME280;3370;47.712;9.082;2023-11-19T09:44:50;97216.53;;;10.73;100.00
6668;BME280;3370;47.712;9.082;2023-11-19T09:47:17;97205.38;;;10.74;100.00
6668;BME280;3370;47.712;9.082;2023-11-19T09:49:44;97201.06;;;10.74;100.00
6668;BME280;3370;47.712;9.082;2023-11-19T09:52:10;97203.38;;;10.81;100.00
6668;BME280;3370;47.712;9.082;2023-11-19T09:54:36;97204.06;;;10.84;100.00
6668;BME280;3370;47.712;9.082;2023-11-19T09:57:02;97189.41;;;10.86;100.00
6668;BME280;3370;47.712;9.082;2023-11-19T09:59:30;97190.16;;;10.88;100.00
6668;BME280;3370;47.712;9.082;2023-11-19T10:01:57;97183.91;;;10.94;100.00
6668;BME280;3370;47.712;9.082;2023-11-19T10:04:23;97171.88;;;10.94;100.00
6668;BME280;3370;47.712;9.082;2023-11-19T10:06:50;97169.03;;;11.01;100.00
6668;BME280;3370;47.712;9.082;2023-11-19T10:09:17;97182.13;;;11.15;100.00
6668;BME280;3370;47.712;9.082;2023-11-19T10:11:43;97176.41;;;11.27;100.00
6668;BME280;3370;47.712;9.082;2023-11-19T10:14:09;97170.75;;;11.38;100.00
6668;BME280;3370;47.712;9.082;2023-11-19T10:16:35;97173.28;;;11.40;100.00
6668;BME280;3370;47.712;9.082;2023-11-19T10:19:01;97174.78;;;11.44;100.00
6668;BME280;3370;47.712;9.082;2023-11-19T10:21:27;97172.75;;;11.33;100.00
6668;BME280;3370;47.712;9.082;2023-11-19T10:23:55;97174.19;;;11.39;100.00
6668;BME280;3370;47.712;9.082;2023-11-19T10:26:26;97183.84;;;11.34;100.00
6668;BME280;3370;47.712;9.082;2023-11-19T10:28:53;97173.69;;;11.30;100.00
6668;BME280;3370;47.712;9.082;2023-11-19T10:31:20;97174.75;;;11.26;100.00
6668;BME280;3370;47.712;9.082;2023-11-19T10:33:50;97183.28;;;11.27;100.00
6668;BME280;3370;47.712;9.082;2023-11-19T10:36:17;97182.59;;;11.23;100.00
6668;BME280;3370;47.712;9.082;2023-11-19T10:38:55;97170.78;;;11.19;100.00
6668;BME280;3370;47.712;9.082;2023-11-19T10:41:32;97163.69;;;11.24;100.00
6668;BME280;3370;47.712;9.082;2023-11-19T10:44:01;97164.38;;;11.28;100.00
6668;BME280;3370;47.712;9.082;2023-11-19T10:46:41;97165.09;;;11.31;100.00
6668;BME280;3370;47.712;9.082;2023-11-19T10:49:08;97158.88;;;11.36;100.00
6668;BME280;3370;47.712;9.082;2023-11-19T10:51:34;97159.19;;;11.29;100.00
6668;BME280;3370;47.712;9.082;2023-11-19T10:54:04;97152.84;;;11.37;100.00
6668;BME280;3370;47.712;9.082;2023-11-19T10:56:33;97150.16;;;11.38;100.00
6668;BME280;3370;47.712;9.082;2023-11-19T10:59:00;97144.75;;;11.25;100.00
6668;BME280;3370;47.712;9.082;2023-11-19T11:01:42;97141.72;;;11.17;100.00
6668;BME280;3370;47.712;9.082;2023-11-19T11:04:14;97134.13;;;11.14;100.00
6668;BME280;3370;47.712;9.082;2023-11-19T11:06:43;97129.69;;;11.54;100.00
6668;BME280;3370;47.712;9.082;2023-11-19T11:09:10;97124.31;;;11.76;100.00
6668;BME280;3370;47.712;9.082;2023-11-19T11:11:40;97117.91;;;11.67;100.00
6668;BME280;3370;47.712;9.082;2023-11-19T11:14:12;97118.13;;;11.80;100.00
6668;BME280;3370;47.712;9.082;2023-11-19T11:16:43;97098.53;;;13.11;100.00
6668;BME280;3370;47.712;9.082;2023-11-19T11:19:15;97098.59;;;13.57;100.00
6668;BME280;3370;47.712;9.082;2023-11-19T11:21:54;97111.28;;;14.07;100.00
6668;BME280;3370;47.712;9.082;2023-11-19T11:25:37;97116.75;;;14.61;98.50
6668;BME280;3370;47.712;9.082;2023-11-19T11:29:16;97115.75;;;14.78;96.31
6668;BME280;3370;47.712;9.082;2023-11-19T11:34:38;97125.22;;;12.62;100.00
6668;BME280;3370;47.712;9.082;2023-11-19T11:39:40;97127.47;;;12.35;100.00
6668;BME280;3370;47.712;9.082;2023-11-19T11:48:00;97119.53;;;12.05;100.00
6668;BME280;3370;47.712;9.082;2023-11-19T11:50:20;97123.81;;;11.87;100.00
6668;BME280;3370;47.712;9.082;2023-11-19T11:55:28;97127.75;;;11.77;100.00
6668;BME280;3370;47.712;9.082;2023-11-19T11:57:59;97116.66;;;11.75;100.00
6668;BME280;3370;47.712;9.082;2023-11-19T12:00:40;97114.78;;;12.31;100.00
6668;BME280;3370;47.712;9.082;2023-11-19T12:03:07;97116.13;;;12.22;100.00
6668;BME280;3370;47.712;9.082;2023-11-19T12:05:44;97117.88;;;12.04;100.00
6668;BME280;3370;47.712;9.082;2023-11-19T12:08:12;97104.56;;;12.62;100.00
6668;BME280;3370;47.712;9.082;2023-11-19T12:10:49;97096.94;;;13.24;100.00
6668;BME280;3370;47.712;9.082;2023-11-19T12:13:16;97094.09;;;13.91;100.00
6668;BME280;3370;47.712;9.082;2023-11-19T12:16:07;97094.41;;;13.71;100.00
6668;BME280;3370;47.712;9.082;2023-11-19T12:18:33;97089.44;;;12.88;100.00
6668;BME280;3370;47.712;9.082;2023-11-19T12:21:00;97091.00;;;12.59;100.00
6668;BME280;3370;47.712;9.082;2023-11-19T12:23:29;97095.72;;;12.51;100.00
6668;BME280;3370;47.712;9.082;2023-11-19T12:25:56;97087.41;;;12.61;100.00
6668;BME280;3370;47.712;9.082;2023-11-19T12:28:23;97088.97;;;12.48;100.00
6668;BME280;3370;47.712;9.082;2023-11-19T12:30:50;97086.50;;;12.29;100.00
6668;BME280;3370;47.712;9.082;2023-11-19T12:33:16;97081.53;;;12.26;100.00
6668;BME280;3370;47.712;9.082;2023-11-19T12:35:44;97075.44;;;12.27;100.00
6668;BME280;3370;47.712;9.082;2023-11-19T12:38:25;97074.34;;;12.15;100.00
6668;BME280;3370;47.712;9.082;2023-11-19T12:41:08;97070.16;;;12.13;100.00
6668;BME280;3370;47.712;9.082;2023-11-19T12:43:37;97077.31;;;12.07;100.00
6668;BME280;3370;47.712;9.082;2023-11-19T12:46:23;97079.97;;;12.06;100.00
6668;BME280;3370;47.712;9.082;2023-11-19T12:48:50;97068.97;;;12.02;100.00
6668;BME280;3370;47.712;9.082;2023-11-19T12:51:17;97079.50;;;11.98;100.00
6668;BME280;3370;47.712;9.082;2023-11-19T12:53:53;97086.72;;;11.91;100.00
6668;BME280;3370;47.712;9.082;2023-11-19T12:56:24;97087.56;;;11.92;100.00
6668;BME280;3370;47.712;9.082;2023-11-19T12:58:50;97084.72;;;11.96;100.00
6668;BME280;3370;47.712;9.082;2023-11-19T13:01:20;97085.63;;;12.13;100.00
6668;BME280;3370;47.712;9.082;2023-11-19T13:03:46;97069.91;;;12.51;100.00
6668;BME280;3370;47.712;9.082;2023-11-19T13:06:15;97078.44;;;12.69;100.00
6668;BME280;3370;47.712;9.082;2023-11-19T13:08:49;97065.47;;;12.70;100.00
6668;BME280;3370;47.712;9.082;2023-11-19T13:11:35;97063.56;;;12.90;100.00
6668;BME280;3370;47.712;9.082;2023-11-19T13:14:03;97063.97;;;12.98;100.00
6668;BME280;3370;47.712;9.082;2023-11-19T13:16:31;97064.06;;;12.80;100.00
6668;BME280;3370;47.712;9.082;2023-11-19T13:18:57;97067.56;;;12.79;100.00
6668;BME280;3370;47.712;9.082;2023-11-19T13:21:25;97070.94;;;12.48;100.00
6668;BME280;3370;47.712;9.082;2023-11-19T13:23:51;97059.34;;;12.39;100.00
6668;BME280;3370;47.712;9.082;2023-11-19T13:26:17;97064.56;;;12.38;100.00
6668;BME280;3370;47.712;9.082;2023-11-19T13:28:43;97055.28;;;12.67;100.00
6668;BME280;3370;47.712;9.082;2023-11-19T13:31:08;97041.00;;;13.09;100.00
6668;BME280;3370;47.712;9.082;2023-11-19T13:33:35;97043.97;;;13.01;100.00
6668;BME280;3370;47.712;9.082;2023-11-19T13:36:03;97045.06;;;12.81;100.00
6668;BME280;3370;47.712;9.082;2023-11-19T13:38:34;97052.94;;;12.46;100.00